Neutral, Kansas
Current Conditions -  °F | °C
As of 10:35 PM on Friday 24 Oct 2014 (Local Time) from KPTS Reporting Station
Clear Clear  
Wind Chill: 64°   Ceiling: Unl
Heat Index: 64°   Visibility: 10mi
Dew Point: 63°   Wind: 7mph
Humidity: 96%   Direction: 210°SSW
Pressure: 30.03"   Gusts: NA
Location:  37.1637°N, 94.898°W
Report Text: KPTS 250335Z AUTO 21006KT 10SM CLR 18/17 A3003 RMK AO2 T01780172
Loading
Personal Weather Stations






























Interactive Weather Map
Tropical Storm Tracking
New forecast layout! Learn more

10-Day Weather Forecast

Advertisements
Track Severe Weather on mobile